Latest Weather Observations for Geelong Racecourse

IDV60801

Issued at 11:42 pm EDT Wednesday 27 January 2021 (issued every 10 minutes, with the page automatically refreshed every 10 minutes)

About weather observations | Map of weather stations | Latest weather observations for VIC | Other Formats
Station Details ID: 087184 Name: GEELONG RACECOURSE Lat: -38.17 Lon: 144.38 Height: 12.9 m
Data from the previous 72 hours. | See also: Recent months at Geelong Racecourse
Date/Time
EDT
Temp
°C
App
Temp
°C
Dew
Point
°C
Rel
Hum
%
Delta-T
°C
Wind Press
QNH
hPa
Press
MSL
hPa
Rain since
9am
mm
Dir  Spd
km/h
Gust
km/h
Spd
kts
Gust
kts
27/11:30pm 18.4 16.2 13.3 72 2.9 SE 17 30 9 16 1017.0 1017.0 0.0
27/11:00pm 18.3 16.5 13.4 73 2.8 SE 15 26 8 14 1017.2 1017.2 0.0
27/10:30pm 18.1 15.6 13.4 74 2.7 SE 19 28 10 15 1016.9 1016.9 0.0
27/10:00pm 18.2 15.6 13.7 75 2.6 SE 20 32 11 17 1016.4 1016.4 0.0
27/09:30pm 18.4 15.5 14.1 76 2.5 SE 22 32 12 17 1016.3 1016.3 0.0
27/09:00pm 18.8 16.0 14.3 75 2.6 SE 22 33 12 18 1015.9 1015.9 0.0
27/08:30pm 19.3 16.0 14.1 72 3.0 SE 24 35 13 19 1015.0 1015.0 0.0
27/08:00pm 20.2 16.4 14.6 70 3.3 SE 28 43 15 23 1014.9 1014.9 0.0
27/07:30pm 21.1 18.0 14.5 66 3.9 SE 24 37 13 20 1014.8 1014.8 0.0
27/07:00pm 21.1 17.2 14.5 66 3.9 SE 28 44 15 24 1014.7 1014.7 0.0
27/06:30pm 21.5 17.3 14.6 65 4.1 SSE 30 43 16 23 1014.6 1014.6 0.0
27/06:00pm 21.5 17.8 14.9 66 3.9 SSE 28 39 15 21 1014.6 1014.6 0.0
27/05:30pm 21.2 17.4 14.8 67 3.8 S 28 43 15 23 1014.9 1014.9 0.0
27/05:00pm 20.5 16.4 13.9 66 3.8 SSE 28 37 15 20 1015.3 1015.3 0.0
27/04:30pm 20.6 16.5 12.6 60 4.5 SSE 26 35 14 19 1015.9 1015.9 0.0
27/04:00pm 20.5 16.5 11.7 57 4.9 S 24 35 13 19 1016.2 1016.2 0.0
27/03:30pm 20.0 15.5 11.5 58 4.7 S 26 37 14 20 1016.3 1016.3 0.0
27/03:00pm 19.7 15.4 10.9 57 4.8 SSE 24 33 13 18 1016.8 1016.8 0.0
27/02:30pm 19.7 16.0 10.1 54 5.2 SSE 20 32 11 17 1016.9 1016.9 0.0
27/02:00pm 19.9 16.2 10.0 53 5.3 S 20 32 11 17 1017.0 1017.0 0.0
27/01:30pm 19.4 15.2 9.6 53 5.2 S 22 30 12 16 1016.9 1016.9 0.0
27/01:00pm 18.8 14.0 8.7 52 5.2 SSE 24 33 13 18 1016.9 1016.9 0.0
27/12:30pm 18.7 13.9 8.7 52 5.2 SSE 24 39 13 21 1017.1 1017.1 0.0
27/12:00pm 18.6 14.0 8.3 51 5.3 SSE 22 32 12 17 1017.4 1017.4 0.0
27/11:30am 18.0 13.4 8.3 53 5.0 SSE 22 35 12 19 1017.4 1017.4 0.0
27/11:00am 18.3 13.7 8.0 51 5.3 SSE 22 37 12 20 1017.4 1017.4 0.0
27/10:30am 16.8 11.8 6.6 51 5.0 SSE 22 33 12 18 1017.5 1017.5 0.0
27/10:00am 16.3 12.1 7.3 55 4.5 SSE 19 26 10 14 1017.4 1017.4 0.0
27/09:30am 15.8 10.6 7.1 56 4.3 SSE 24 33 13 18 1017.2 1017.2 0.0
27/09:00am 15.7 11.6 6.2 53 4.6 SE 17 30 9 16 1017.1 1017.1 0.0
27/08:30am 15.9 11.9 6.6 54 4.5 SE 17 28 9 15 1016.7 1016.7 0.0
27/08:00am 15.1 11.9 6.9 58 4.0 SE 13 24 7 13 1016.3 1016.3 0.0
27/07:30am 14.7 11.4 6.5 58 4.0 SSE 13 20 7 11 1016.2 1016.2 0.0
27/07:00am 14.8 11.1 6.4 57 4.1 SSE 15 22 8 12 1015.9 1015.9 0.0
27/06:30am 14.5 11.6 6.6 59 3.8 SSE 11 17 6 9 1015.3 1015.3 0.0
27/06:00am 14.3 9.5 5.7 56 4.1 SSE 20 30 11 16 1015.1 1015.1 0.0
27/05:30am 14.4 11.5 6.7 60 3.7 SSE 11 17 6 9 1014.7 1014.7 0.0
27/05:00am 14.2 10.5 6.1 58 3.9 SSE 15 24 8 13 1014.2 1014.2 0.0
27/04:30am 13.9 10.1 6.0 59 3.8 SSE 15 20 8 11 1014.0 1014.0 0.0
27/04:00am 14.0 10.3 6.4 60 3.6 S 15 20 8 11 1013.9 1013.9 0.0
27/03:30am 13.7 9.9 5.8 59 3.7 SSE 15 22 8 12 1014.0 1014.0 0.0
27/03:00am 13.3 9.9 5.9 61 3.5 S 13 20 7 11 1014.1 1014.1 0.0
27/02:30am 13.3 10.0 6.2 62 3.4 S 13 24 7 13 1014.1 1014.1 0.0
27/02:00am 12.9 9.5 6.0 63 3.3 SSW 13 22 7 12 1013.7 1013.7 0.0
27/01:30am 13.4 9.2 5.8 60 3.6 S 17 26 9 14 1013.6 1013.6 0.0
27/01:00am 14.0 9.9 6.1 59 3.8 S 17 22 9 12 1013.6 1013.6 0.0
27/12:30am 14.3 9.7 6.4 59 3.8 S 20 26 11 14 1013.5 1013.5 0.0
27/12:00am 14.4 10.0 7.2 62 3.5 S 20 32 11 17 1013.3 1013.3 0.0
 
Date/Time
EDT
Temp
°C
App
Temp
°C
Dew
Point
°C
Rel
Hum
%
Delta-T
°C
Wind Press
QNH
hPa
Press
MSL
hPa
Rain since
9am
mm
Dir  Spd
km/h
Gust
km/h
Spd
kts
Gust
kts
26/11:30pm 14.4 10.2 8.4 67 3.0 S 20 30 11 16 1012.9 1012.9 0.0
26/11:00pm 13.5 10.5 7.7 68 2.9 SSW 13 19 7 10 1012.8 1012.8 0.0
26/10:30pm 14.2 10.8 7.7 65 3.2 SSW 15 20 8 11 1012.7 1012.7 0.0
26/10:00pm 14.5 11.0 8.7 68 2.9 SSW 17 24 9 13 1012.4 1012.4 0.0
26/09:30pm 14.8 10.3 8.5 66 3.2 S 22 33 12 18 1011.8 1011.8 0.0
26/09:00pm 15.6 10.5 9.3 66 3.3 SSW 26 35 14 19 1011.5 1011.5 0.0
26/08:30pm 15.9 10.9 9.6 66 3.3 SSW 26 33 14 18 1011.0 1011.0 0.0
26/08:00pm 16.1 10.1 10.0 67 3.2 SSW 32 43 17 23 1010.1 1010.1 0.0
26/07:30pm 16.6 11.1 10.5 67 3.2 S 30 39 16 21 1009.4 1009.4 0.0
26/07:00pm 17.6 12.2 10.9 65 3.6 S 30 41 16 22 1008.9 1008.9 0.0
26/06:30pm 18.4 12.9 11.7 65 3.7 S 32 48 17 26 1008.2 1008.2 0.0
26/06:00pm 18.8 13.2 12.1 65 3.7 S 33 44 18 24 1007.8 1007.8 0.0
26/05:30pm 18.6 12.5 11.7 64 3.8 S 35 44 19 24 1007.6 1007.6 0.0
26/05:00pm 19.9 14.4 11.9 60 4.5 S 32 50 17 27 1007.2 1007.2 0.0
26/04:30pm 20.4 14.9 11.9 58 4.7 SSW 32 44 17 24 1006.8 1006.8 0.0
26/04:00pm 20.4 15.5 12.6 61 4.4 S 30 41 16 22 1006.5 1006.5 0.0
26/03:30pm 20.8 16.4 12.8 60 4.5 S 28 37 15 20 1006.4 1006.4 0.0
26/03:00pm 20.2 16.6 11.9 59 4.6 S 22 32 12 17 1006.2 1006.2 0.0
26/02:30pm 18.3 14.0 12.1 67 3.4 SSW 26 35 14 19 1006.3 1006.3 0.0
26/02:00pm 18.9 15.4 12.2 65 3.7 S 22 32 12 17 1006.0 1006.0 0.0
26/01:30pm 18.6 15.4 13.0 70 3.2 S 22 28 12 15 1005.9 1005.9 0.0
26/01:00pm 17.9 14.7 13.0 73 2.8 S 22 32 12 17 1005.5 1005.5 0.0
26/12:30pm 18.1 15.1 13.8 76 2.5 S 22 28 12 15 1005.2 1005.2 0.0
26/12:00pm 18.1 15.8 14.0 77 2.4 SSW 19 28 10 15 1005.0 1005.0 0.0
26/11:30am 18.0 15.4 13.9 77 2.3 S 20 28 11 15 1004.6 1004.6 0.0
26/11:00am 17.5 15.2 14.2 81 1.9 SSW 19 26 10 14 1004.3 1004.3 0.0
26/10:30am 17.9 14.4 14.6 81 1.9 SSW 26 35 14 19 1003.8 1003.8 0.0
26/10:00am 17.5 14.6 15.1 86 1.4 SSW 24 33 13 18 1003.5 1003.5 0.0
26/09:30am 17.1 15.1 15.4 90 1.0 SSW 20 28 11 15 1003.3 1003.3 0.0
26/09:00am 17.7 16.4 15.9 89 1.1 SSW 17 24 9 13 1002.8 1002.8 2.0
26/08:30am 17.3 17.3 16.2 93 0.7 SW 11 19 6 10 1002.3 1002.3 2.0
26/08:00am 17.2 16.0 16.2 94 0.6 SSW 17 24 9 13 1001.8 1001.8 2.0
26/07:30am 17.0 15.5 16.4 96 0.4 SSW 19 26 10 14 1001.4 1001.4 2.0
26/07:00am 17.3 16.3 16.5 95 0.5 SSW 17 24 9 13 1000.7 1000.7 2.0
26/06:30am 17.4 16.0 16.6 95 0.5 SSW 19 26 10 14 1000.0 1000.0 1.8
26/06:00am 17.6 16.4 17.0 96 0.4 SSW 19 28 10 15 999.4 999.4 1.4
26/05:30am 17.8 17.5 17.3 97 0.3 SSW 15 20 8 11 998.7 998.7 1.4
26/05:00am 17.8 17.1 17.3 97 0.3 SSW 17 20 9 11 998.2 998.2 1.0
26/04:30am 17.8 18.2 17.3 97 0.3 SSW 11 17 6 9 998.1 998.1 0.8
26/04:00am 17.9 16.5 17.1 95 0.5 S 20 28 11 15 997.8 997.8 0.6
26/03:30am 19.0 18.8 17.7 92 0.8 S 15 20 8 11 997.9 997.9 0.6
26/03:00am 19.9 21.6 18.6 92 0.8 SW 7 11 4 6 997.6 997.6 0.6
26/02:30am 20.0 22.3 18.5 91 0.9 SSW 4 6 2 3 997.6 997.6 0.4
26/02:00am 20.0 22.6 18.3 90 1.1 SE 2 4 1 2 998.0 998.0 0.4
26/01:30am 20.0 22.9 18.3 90 1.1 CALM 0 0 0 0 998.7 998.7 0.4
26/01:00am 20.1 23.1 18.4 90 1.1 CALM 0 0 0 0 999.3 999.3 0.4
26/12:30am 20.1 22.7 18.4 90 1.1 S 2 6 1 3 998.8 998.8 0.4
26/12:00am 20.2 23.1 18.1 88 1.3 CALM 0 0 0 0 999.3 999.3 0.4
 
Date/Time
EDT
Temp
°C
App
Temp
°C
Dew
Point
°C
Rel
Hum
%
Delta-T
°C
Wind Press
QNH
hPa
Press
MSL
hPa
Rain since
9am
mm
Dir  Spd
km/h
Gust
km/h
Spd
kts
Gust
kts
25/11:30pm 20.3 21.7 17.9 86 1.5 N 7 13 4 7 999.4 999.4 0.4
25/11:00pm 19.9 22.0 18.0 89 1.2 N 4 9 2 5 999.9 999.9 0.4
25/10:30pm 19.8 21.4 17.9 89 1.2 NNE 6 9 3 5 999.8 999.8 0.4
25/10:00pm 19.8 22.1 17.6 87 1.4 SSE 2 6 1 3 1000.3 1000.3 0.4
25/09:30pm 20.1 21.8 17.1 83 1.8 S 4 6 2 3 1000.9 1000.9 0.0
25/09:00pm 20.3 21.5 16.9 81 2.1 SSW 6 7 3 4 1000.9 1000.9 0.0
25/08:30pm 20.7 20.8 16.5 77 2.5 S 11 17 6 9 1000.0 1000.0 0.0
25/08:00pm 20.9 20.6 16.5 76 2.7 SSW 13 19 7 10 1000.2 1000.2 0.0
25/07:30pm 21.1 20.4 16.5 75 2.8 S 15 22 8 12 999.6 999.6 0.0
25/07:00pm 21.5 20.5 16.5 73 3.0 S 17 22 9 12 998.3 998.3 0.0
25/06:30pm 22.4 20.7 16.2 68 3.8 S 20 30 11 16 998.6 998.6 0.0
25/06:00pm 23.2 21.7 16.3 65 4.2 S 19 28 10 15 999.7 999.7 0.0
25/05:30pm 23.6 21.5 16.1 62 4.6 SSW 22 30 12 16 999.7 999.7 0.0
25/05:00pm 24.6 22.6 15.5 57 5.5 S 20 28 11 15 999.5 999.5 0.0
25/04:30pm 25.4 23.5 15.1 53 6.2 S 19 24 10 13 1000.4 1000.4 0.0
25/04:00pm 25.2 22.2 14.9 52 6.2 SSW 24 35 13 19 1000.4 1000.4 0.0
25/03:30pm 25.7 22.7 14.8 51 6.5 S 24 32 13 17 999.5 999.5 0.0
25/03:00pm 25.8 23.0 14.3 49 6.9 S 22 28 12 15 999.3 999.3 0.0
25/02:30pm 25.7 23.3 14.5 50 6.7 S 20 30 11 16 999.5 999.5 0.0
25/02:00pm 26.5 24.2 14.6 48 7.2 S 20 32 11 17 999.6 999.6 0.0
25/01:30pm 27.6 23.1 13.9 43 8.2 S 30 41 16 22 1000.0 1000.0 0.0
25/01:00pm 26.8 23.2 14.2 46 7.6 S 26 37 14 20 1000.5 1000.5 0.0
25/12:30pm 27.4 21.9 13.7 43 8.1 S 35 48 19 26 1000.6 1000.6 0.0
25/12:00pm 29.4 25.2 13.6 38 9.5 SSE 28 41 15 22 1000.0 1000.0 0.0
25/11:30am 29.7 25.3 11.7 33 10.4 SSE 26 35 14 19 1000.0 1000.0 0.0
25/11:24am 30.6 26.0 11.1 30 11.3 S 26 37 14 20 999.9 999.9 0.0
25/11:00am 35.6 33.0 9.2 20 15.2 WNW 13 19 7 10 999.7 999.7 0.0
25/10:30am 35.0 31.9 8.7 20 14.9 WNW 15 24 8 13 999.8 999.8 0.0
25/10:00am 32.4 30.3 9.9 25 12.9 W 11 17 6 9 1000.1 1000.1 0.0
25/09:30am 32.7 30.9 9.5 24 13.2 W 9 19 5 10 1000.0 1000.0 0.0
25/09:00am 31.1 29.5 8.2 24 12.7 WNW 6 9 3 5 999.9 999.9 0.0
25/08:30am 31.4 29.6 7.8 23 13.0 WNW 7 15 4 8 999.9 999.9 0.0
25/08:00am 30.9 27.6 8.0 24 12.7 N 15 22 8 12 999.4 999.4 0.0
25/07:30am 30.6 26.3 7.1 23 12.7 N 19 32 10 17 999.1 999.1 0.0
25/07:00am 30.6 25.7 7.1 23 12.8 N 22 37 12 20 999.0 999.0 0.0
25/06:30am 31.4 25.3 6.5 21 13.4 N 28 43 15 23 998.9 998.9 0.0
25/06:00am 31.6 25.5 6.6 21 13.6 N 28 39 15 21 998.9 998.9 0.0
25/05:30am 31.5 26.3 7.2 22 13.2 N 24 35 13 19 999.0 999.0 0.0
25/05:00am 31.4 26.5 7.1 22 13.3 N 22 37 12 20 999.0 999.0 0.0
25/04:30am 26.7 25.7 12.4 41 8.3 NE 9 13 5 7 999.3 999.3 0.0
25/04:00am 25.1 24.9 13.6 49 6.8 NE 7 9 4 5 999.5 999.5 0.0
25/03:30am 24.0 24.1 14.4 55 5.7 NE 7 9 4 5 999.8 999.8 0.0
25/03:00am 24.6 24.0 13.5 50 6.5 NE 9 13 5 7 1000.1 1000.1 0.0
25/02:30am 24.1 23.6 14.8 56 5.5 NE 11 15 6 8 1000.5 1000.5 0.0
25/02:00am 23.5 23.0 14.8 58 5.2 NE 11 13 6 7 1000.8 1000.8 0.0
25/01:30am 23.4 24.1 16.2 64 4.4 NE 7 11 4 6 1001.2 1001.2 0.0
25/01:00am 23.6 24.7 17.1 67 4.0 NE 7 13 4 7 1001.6 1001.6 0.0
25/12:30am 23.5 25.0 19.0 76 2.9 NE 9 13 5 7 1001.8 1001.8 0.0
25/12:00am 24.2 25.9 19.3 74 3.1 NE 9 13 5 7 1002.2 1002.2 0.0

Other formats

Comma delimited format used in spreadsheet applications
http://www.bom.gov.au/fwo/IDV60801/IDV60801.94857.axf

JavaScript Object Notation format (JSON) in row-major order
http://www.bom.gov.au/fwo/IDV60801/IDV60801.94857.json

Data quality

Most of these data are generated automatically and are frequently updated. Quality checks on data are not normally performed. It is possible for incorrect values to appear. Refer to information at About Latest Weather Observations and please check the disclaimer before using these data.